Collison, Illinois
Current Conditions -  °F | °C
As of 7:15 AM on Thursday 23 Oct 2014 (Local Time) from KDNV Reporting Station
Haze Haze  
Wind Chill: 36°   Ceiling: 700
Heat Index: 36°   Visibility: 1.2mi
Dew Point: 36°   Wind: 3mph
Humidity: 98%   Direction: 140°SE
Pressure: 30.22"   Gusts: NA
Location:  40.23°N, 87.8°W
Report Text: KDNV 231215Z AUTO 14003KT 1 1/4SM BR VV007 02/02 A3022 RMK AO2 T00240021
Loading
Personal Weather Stations






























Interactive Weather Map
Tropical Storm Tracking
New forecast layout! Learn more

10-Day Weather Forecast

Advertisements
Track Severe Weather on mobile